createdAt,value
2023-11-22T00:00:38.094Z,9.10
2023-11-22T00:03:05.600Z,9.60
2023-11-22T00:05:33.147Z,9.97
2023-11-22T00:08:00.618Z,9.13
2023-11-22T00:10:28.808Z,11.73
2023-11-22T00:12:56.675Z,10.13
2023-11-22T00:15:24.196Z,10.80
2023-11-22T00:17:53.868Z,9.87
2023-11-22T00:20:22.078Z,11.33
2023-11-22T00:22:49.592Z,9.83
2023-11-22T00:25:17.117Z,10.30
2023-11-22T00:27:44.563Z,9.37
2023-11-22T00:30:12.546Z,10.67
2023-11-22T00:32:41.696Z,10.47
2023-11-22T00:35:11.069Z,11.47
2023-11-22T00:37:38.667Z,9.00
2023-11-22T00:40:11.529Z,9.57
2023-11-22T00:42:40.690Z,9.33
2023-11-22T00:45:10.691Z,9.50
2023-11-22T00:47:38.509Z,10.97
2023-11-22T00:50:06.490Z,9.70
2023-11-22T00:52:35.739Z,10.60
2023-11-22T00:55:03.169Z,11.53
2023-11-22T00:57:31.731Z,10.70
2023-11-22T00:59:59.182Z,10.03
2023-11-22T01:02:26.840Z,9.70
2023-11-22T01:04:54.881Z,9.23
2023-11-22T01:07:22.406Z,9.97
2023-11-22T01:09:51.201Z,9.90
2023-11-22T01:12:18.674Z,10.10
2023-11-22T01:14:46.149Z,10.13
2023-11-22T01:17:13.657Z,10.97
2023-11-22T01:19:41.090Z,9.60
2023-11-22T01:22:08.551Z,9.73
2023-11-22T01:24:38.202Z,9.80
2023-11-22T01:27:07.362Z,9.93
2023-11-22T01:29:35.649Z,9.90
2023-11-22T01:32:03.562Z,10.57
2023-11-22T01:34:31.453Z,9.93
2023-11-22T01:36:58.887Z,10.10
2023-11-22T01:39:27.294Z,9.80
2023-11-22T01:41:55.295Z,9.67
2023-11-22T01:44:24.907Z,10.17
2023-11-22T01:46:52.386Z,12.20
2023-11-22T01:49:20.229Z,9.50
2023-11-22T01:51:47.705Z,10.90
2023-11-22T01:54:15.714Z,10.23
2023-11-22T01:56:43.254Z,9.30
2023-11-22T01:59:11.060Z,9.07
2023-11-22T02:01:40.307Z,9.17
2023-11-22T02:04:08.198Z,8.90
2023-11-22T02:06:36.660Z,9.77
2023-11-22T02:09:04.212Z,10.37
2023-11-22T02:11:31.670Z,9.03
2023-11-22T02:13:59.130Z,10.43
2023-11-22T02:16:26.789Z,10.50
2023-11-22T02:18:55.776Z,9.63
2023-11-22T02:21:23.540Z,9.07
2023-11-22T02:23:52.343Z,9.03
2023-11-22T02:26:20.320Z,9.80
2023-11-22T02:28:49.063Z,9.37
2023-11-22T02:31:18.490Z,10.03
2023-11-22T02:33:45.969Z,9.57
2023-11-22T02:36:14.296Z,10.27
2023-11-22T02:38:42.994Z,9.63
2023-11-22T02:41:11.900Z,10.00
2023-11-22T02:43:39.514Z,9.47
2023-11-22T02:46:07.037Z,9.17
2023-11-22T02:48:34.690Z,8.83
2023-11-22T02:51:02.138Z,8.83
2023-11-22T02:53:31.103Z,8.60
2023-11-22T02:56:01.442Z,9.33
2023-11-22T02:58:30.999Z,8.83
2023-11-22T03:00:58.572Z,8.70
2023-11-22T03:03:26.066Z,8.90
2023-11-22T03:05:53.532Z,8.97
2023-11-22T03:08:21.012Z,9.23
2023-11-22T03:10:48.438Z,9.20
2023-11-22T03:13:15.885Z,9.45
2023-11-22T03:15:45.006Z,7.93
2023-11-22T03:18:12.490Z,9.07
2023-11-22T03:20:40.146Z,8.90
2023-11-22T03:23:07.680Z,8.93
2023-11-22T03:25:35.155Z,9.20
2023-11-22T03:28:02.574Z,9.50
2023-11-22T03:30:30.059Z,9.20
2023-11-22T03:32:58.888Z,9.00
2023-11-22T03:35:26.394Z,9.77
2023-11-22T03:37:53.862Z,9.83
2023-11-22T03:40:21.954Z,9.47
2023-11-22T03:42:49.382Z,9.67
2023-11-22T03:45:16.921Z,9.50
2023-11-22T03:47:45.129Z,8.83
2023-11-22T03:50:15.718Z,9.23
2023-11-22T03:52:43.250Z,9.70
2023-11-22T03:55:10.742Z,9.07
2023-11-22T03:57:38.147Z,8.50
2023-11-22T04:00:07.484Z,8.77
2023-11-22T04:02:40.010Z,9.30
2023-11-22T04:05:08.106Z,9.00
2023-11-22T04:07:37.132Z,9.43
2023-11-22T04:10:04.918Z,9.10
2023-11-22T04:12:33.285Z,9.10
2023-11-22T04:15:02.211Z,9.07
2023-11-22T04:17:30.187Z,10.73
2023-11-22T04:19:58.000Z,9.77
2023-11-22T04:22:25.428Z,9.70
2023-11-22T04:24:54.190Z,10.30
2023-11-22T04:27:22.042Z,10.47
2023-11-22T04:29:49.504Z,10.20
2023-11-22T04:32:17.019Z,10.50
2023-11-22T04:34:43.528Z,9.47
2023-11-22T04:37:11.049Z,11.33
2023-11-22T04:39:38.449Z,10.13
2023-11-22T04:42:07.621Z,10.37
2023-11-22T04:44:35.079Z,9.23
2023-11-22T04:47:02.657Z,10.27
2023-11-22T04:49:30.139Z,10.30
2023-11-22T04:51:57.604Z,10.60
2023-11-22T04:54:25.038Z,9.93
2023-11-22T04:56:52.554Z,9.77
2023-11-22T04:59:21.357Z,8.90
2023-11-22T05:01:49.850Z,10.57
2023-11-22T05:04:17.305Z,9.97
2023-11-22T05:06:45.424Z,11.87
2023-11-22T05:09:14.194Z,11.10
2023-11-22T05:11:42.384Z,9.33
2023-11-22T05:14:09.840Z,9.97
2023-11-22T05:16:38.660Z,10.10
2023-11-22T05:19:06.720Z,10.37
2023-11-22T05:21:34.268Z,9.50
2023-11-22T05:24:01.694Z,9.23
2023-11-22T05:26:29.177Z,9.40
2023-11-22T05:28:56.614Z,9.93
2023-11-22T05:31:24.222Z,9.50
2023-11-22T05:33:52.983Z,9.83
2023-11-22T05:36:21.224Z,9.83
2023-11-22T05:38:48.680Z,9.90
2023-11-22T05:41:16.767Z,9.50
2023-11-22T05:43:44.233Z,9.30
2023-11-22T05:46:13.721Z,9.20
2023-11-22T05:48:41.205Z,9.07
2023-11-22T05:51:10.514Z,9.27
2023-11-22T05:53:38.038Z,8.60
2023-11-22T05:56:07.820Z,8.90
2023-11-22T05:58:39.209Z,11.13
2023-11-22T06:01:06.939Z,8.07
2023-11-22T06:03:34.692Z,9.60
2023-11-22T06:06:02.375Z,8.13
2023-11-22T06:08:31.870Z,8.97
2023-11-22T06:11:00.502Z,9.47
2023-11-22T06:13:28.472Z,8.07
2023-11-22T06:15:55.950Z,8.40
2023-11-22T06:18:23.757Z,8.27
2023-11-22T06:20:51.234Z,7.43
2023-11-22T06:23:19.623Z,7.23
2023-11-22T06:25:48.601Z,8.27
2023-11-22T06:28:16.501Z,7.50
2023-11-22T06:30:43.953Z,7.37
2023-11-22T06:33:11.399Z,8.27
2023-11-22T06:35:39.004Z,7.93
2023-11-22T06:38:06.510Z,7.67
2023-11-22T06:40:33.993Z,7.47
2023-11-22T06:43:05.229Z,7.13
2023-11-22T06:45:33.278Z,7.80
2023-11-22T06:48:00.812Z,6.27
2023-11-22T06:50:28.382Z,7.60
2023-11-22T06:52:55.828Z,6.47
2023-11-22T06:55:23.253Z,7.57
2023-11-22T06:57:51.365Z,6.87
2023-11-22T07:00:21.490Z,7.27
2023-11-22T07:02:49.075Z,6.83
2023-11-22T07:05:16.723Z,6.70
2023-11-22T07:07:44.217Z,7.63
2023-11-22T07:10:12.503Z,8.80
2023-11-22T07:12:40.987Z,6.23
2023-11-22T07:15:10.703Z,9.30
2023-11-22T07:17:39.770Z,7.37
2023-11-22T07:20:10.580Z,8.57
2023-11-22T07:22:38.163Z,7.07
2023-11-22T07:25:05.944Z,7.50
2023-11-22T07:27:33.811Z,7.90
2023-11-22T07:30:02.019Z,6.97
2023-11-22T07:32:29.497Z,6.63
2023-11-22T07:34:58.286Z,7.43
2023-11-22T07:37:26.069Z,7.60
2023-11-22T07:39:54.532Z,8.07
2023-11-22T07:42:23.144Z,6.70
2023-11-22T07:44:56.928Z,7.23
2023-11-22T07:47:25.393Z,7.03
2023-11-22T07:49:53.156Z,8.33
2023-11-22T07:52:21.987Z,7.10
2023-11-22T07:54:49.522Z,7.47
2023-11-22T07:57:16.951Z,7.37
2023-11-22T07:59:44.433Z,7.80
2023-11-22T08:02:12.987Z,6.37
2023-11-22T08:04:41.440Z,7.37
2023-11-22T08:07:09.179Z,6.57
2023-11-22T08:09:37.976Z,7.50
2023-11-22T08:12:06.537Z,6.97
2023-11-22T08:14:34.704Z,7.70
2023-11-22T08:17:02.904Z,7.47
2023-11-22T08:19:30.537Z,8.43
2023-11-22T08:21:58.002Z,7.77
2023-11-22T08:24:25.410Z,7.20
2023-11-22T08:26:54.277Z,7.93
2023-11-22T08:29:21.792Z,7.13
2023-11-22T08:31:51.703Z,7.80
2023-11-22T08:34:19.147Z,7.13
2023-11-22T08:36:46.597Z,8.07
2023-11-22T08:39:14.068Z,8.87
2023-11-22T08:41:41.601Z,8.13
2023-11-22T08:44:10.545Z,8.77
2023-11-22T08:46:38.149Z,8.13
2023-11-22T08:49:05.639Z,8.07
2023-11-22T08:51:34.679Z,7.40
2023-11-22T08:54:02.151Z,6.37
2023-11-22T08:56:29.931Z,6.77
2023-11-22T08:58:57.362Z,7.60
2023-11-22T09:01:26.770Z,7.90
2023-11-22T09:03:54.278Z,8.70
2023-11-22T09:06:21.909Z,6.97
2023-11-22T09:08:50.416Z,7.67
2023-11-22T09:11:20.970Z,7.97
2023-11-22T09:13:48.896Z,9.70
2023-11-22T09:16:17.740Z,8.53
2023-11-22T09:18:46.753Z,9.60
2023-11-22T09:21:16.756Z,8.77
2023-11-22T09:23:45.809Z,8.37
2023-11-22T09:26:13.305Z,9.23
2023-11-22T09:28:41.606Z,8.43
2023-11-22T09:31:08.100Z,9.63
2023-11-22T09:33:35.608Z,7.70
2023-11-22T09:36:07.967Z,8.07
2023-11-22T09:38:38.611Z,7.57
2023-11-22T09:41:06.663Z,7.67
2023-11-22T09:43:34.482Z,7.43
2023-11-22T09:46:03.020Z,6.40
2023-11-22T09:48:33.337Z,5.53
2023-11-22T09:51:04.511Z,5.53
2023-11-22T09:53:35.356Z,5.13
2023-11-22T09:56:03.647Z,5.00
2023-11-22T09:58:31.832Z,5.80
2023-11-22T10:00:59.567Z,5.63
2023-11-22T10:03:29.465Z,5.47
2023-11-22T10:05:58.186Z,5.63
2023-11-22T10:08:25.785Z,5.83
2023-11-22T10:10:55.290Z,6.30
2023-11-22T10:13:23.318Z,5.43
2023-11-22T10:15:50.968Z,5.27
2023-11-22T10:18:18.782Z,5.70
2023-11-22T10:20:47.765Z,4.53
2023-11-22T10:23:15.852Z,5.90
2023-11-22T10:25:48.551Z,9.30
2023-11-22T10:28:18.819Z,5.70
2023-11-22T10:30:47.261Z,4.10
2023-11-22T10:33:15.581Z,4.83
2023-11-22T10:35:44.344Z,4.87
2023-11-22T10:38:11.907Z,4.53
2023-11-22T10:40:39.738Z,3.70
2023-11-22T10:43:08.967Z,4.47
2023-11-22T10:45:44.087Z,4.03
2023-11-22T10:48:17.064Z,4.33
2023-11-22T10:50:45.326Z,5.40
2023-11-22T10:53:14.133Z,3.57
2023-11-22T10:55:44.293Z,4.60
2023-11-22T10:58:12.924Z,3.60
2023-11-22T11:00:42.614Z,3.87
2023-11-22T11:03:11.190Z,3.33
2023-11-22T11:05:42.331Z,2.90
2023-11-22T11:08:11.986Z,3.93
2023-11-22T11:10:40.584Z,2.97
2023-11-22T11:13:08.450Z,3.57
2023-11-22T11:15:35.853Z,3.20
2023-11-22T11:18:06.844Z,4.37
2023-11-22T11:20:34.652Z,3.37
2023-11-22T11:23:06.089Z,4.87
2023-11-22T11:25:34.619Z,3.17
2023-11-22T11:28:02.041Z,3.80
2023-11-22T11:30:45.585Z,3.40
2023-11-22T11:33:18.082Z,3.77
2023-11-22T11:35:47.931Z,5.03
2023-11-22T11:38:15.898Z,3.63
2023-11-22T11:40:44.489Z,4.13
2023-11-22T11:43:12.491Z,3.60
2023-11-22T11:45:41.277Z,3.60
2023-11-22T11:48:08.897Z,5.20
2023-11-22T11:50:37.774Z,3.77
2023-11-22T11:53:05.662Z,3.97
2023-11-22T11:55:33.074Z,5.50
2023-11-22T11:58:06.081Z,4.17
2023-11-22T12:00:33.541Z,4.27
2023-11-22T12:03:01.088Z,4.10
2023-11-22T12:05:29.067Z,3.87
2023-11-22T12:07:57.881Z,4.30
2023-11-22T12:10:25.912Z,4.43
2023-11-22T12:12:53.390Z,3.30
2023-11-22T12:15:21.052Z,4.23
2023-11-22T12:17:52.137Z,4.07
2023-11-22T12:20:22.374Z,3.30
2023-11-22T12:22:50.338Z,3.90
2023-11-22T12:25:21.080Z,3.60
2023-11-22T12:27:48.675Z,3.20
2023-11-22T12:30:30.391Z,3.00
2023-11-22T12:32:57.892Z,3.20
2023-11-22T12:35:25.462Z,4.13
2023-11-22T12:37:55.600Z,4.17
2023-11-22T12:40:24.457Z,3.17
2023-11-22T12:42:54.276Z,2.67
2023-11-22T12:45:24.655Z,3.30
2023-11-22T12:47:52.364Z,3.60
2023-11-22T12:50:33.105Z,3.30
2023-11-22T12:53:01.147Z,3.97
2023-11-22T12:55:29.933Z,3.60
2023-11-22T12:58:03.289Z,3.70
2023-11-22T13:00:31.177Z,4.53
2023-11-22T13:03:03.493Z,3.93
2023-11-22T13:05:32.278Z,3.17
2023-11-22T13:08:02.300Z,3.63
2023-11-22T13:10:32.132Z,4.00
2023-11-22T13:12:59.740Z,3.67
2023-11-22T13:15:28.051Z,3.77
2023-11-22T13:17:56.493Z,3.57
2023-11-22T13:20:24.853Z,3.87
2023-11-22T13:22:52.294Z,4.13
2023-11-22T13:25:20.094Z,3.60
2023-11-22T13:27:49.966Z,3.27
2023-11-22T13:30:23.130Z,4.60
2023-11-22T13:32:50.669Z,3.43
2023-11-22T13:35:22.760Z,3.23
2023-11-22T13:37:50.576Z,4.33
2023-11-22T13:40:22.580Z,3.40
2023-11-22T13:42:53.757Z,3.23
2023-11-22T13:45:21.965Z,2.77
2023-11-22T13:47:51.343Z,2.40
2023-11-22T13:50:23.117Z,4.33
2023-11-22T13:52:50.723Z,2.73
2023-11-22T13:55:25.432Z,3.40
2023-11-22T13:57:54.733Z,2.77
2023-11-22T14:00:23.917Z,3.17
2023-11-22T14:02:52.569Z,3.33
2023-11-22T14:05:20.274Z,3.00
2023-11-22T14:07:49.771Z,2.63
2023-11-22T14:10:17.814Z,3.43
2023-11-22T14:12:45.856Z,2.87
2023-11-22T14:15:14.971Z,3.53
2023-11-22T14:17:43.209Z,3.07
2023-11-22T14:20:11.600Z,3.10
2023-11-22T14:22:39.931Z,3.67
2023-11-22T14:25:08.734Z,3.43
2023-11-22T14:27:36.226Z,4.03
2023-11-22T14:30:06.802Z,2.90
2023-11-22T14:32:36.593Z,4.30
2023-11-22T14:35:04.224Z,6.13
2023-11-22T14:37:32.021Z,5.50
2023-11-22T14:40:00.162Z,5.20
2023-11-22T14:42:28.681Z,4.33
2023-11-22T14:44:56.265Z,2.83
2023-11-22T14:47:25.882Z,3.93
2023-11-22T14:49:55.859Z,3.33
2023-11-22T14:52:24.356Z,4.17
2023-11-22T14:54:53.473Z,4.00
2023-11-22T14:57:20.870Z,3.87
2023-11-22T14:59:50.258Z,2.70
2023-11-22T15:02:17.793Z,2.33
2023-11-22T15:04:45.280Z,2.53
2023-11-22T15:07:15.821Z,2.93
2023-11-22T15:09:44.309Z,3.60
2023-11-22T15:12:11.767Z,5.30
2023-11-22T15:14:39.268Z,5.57
2023-11-22T15:17:06.731Z,5.63
2023-11-22T15:19:34.586Z,5.47
2023-11-22T15:22:02.016Z,4.73
2023-11-22T15:24:31.470Z,6.23
2023-11-22T15:26:59.929Z,5.53
2023-11-22T15:29:27.417Z,5.10
2023-11-22T15:31:55.382Z,7.33
2023-11-22T15:34:23.858Z,6.73
2023-11-22T15:36:51.447Z,7.80
2023-11-22T15:39:22.980Z,6.90
2023-11-22T15:41:52.283Z,6.47
2023-11-22T15:44:19.708Z,6.53
2023-11-22T15:46:47.214Z,6.97
2023-11-22T15:49:14.829Z,8.10
2023-11-22T15:51:42.465Z,8.13
2023-11-22T15:54:10.115Z,7.83
2023-11-22T15:56:37.592Z,8.00
2023-11-22T15:59:06.375Z,6.47
2023-11-22T16:01:33.886Z,6.30
2023-11-22T16:04:01.464Z,8.40
2023-11-22T16:06:29.437Z,5.90
2023-11-22T16:08:57.514Z,7.07
2023-11-22T16:11:25.081Z,7.57
2023-11-22T16:13:52.852Z,7.50
2023-11-22T16:16:22.885Z,6.30
2023-11-22T16:18:50.509Z,6.53
2023-11-22T16:21:18.476Z,7.13
2023-11-22T16:23:45.970Z,6.37
2023-11-22T16:26:13.557Z,6.57
2023-11-22T16:28:41.044Z,7.87
2023-11-22T16:31:11.234Z,6.60
2023-11-22T16:33:40.282Z,7.10
2023-11-22T16:36:08.299Z,7.57
2023-11-22T16:38:35.916Z,7.53
2023-11-22T16:41:07.066Z,6.63
2023-11-22T16:43:35.424Z,8.37
2023-11-22T16:46:02.917Z,6.50
2023-11-22T16:48:30.476Z,5.90
2023-11-22T16:50:59.831Z,5.30
2023-11-22T16:53:27.348Z,6.37
2023-11-22T16:55:54.806Z,7.27
2023-11-22T16:58:22.349Z,6.93
2023-11-22T17:00:50.156Z,6.37
2023-11-22T17:03:22.140Z,7.10
2023-11-22T17:05:52.198Z,5.83
2023-11-22T17:08:21.107Z,7.00
2023-11-22T17:10:49.082Z,6.87
2023-11-22T17:13:16.836Z,6.73
2023-11-22T17:15:45.993Z,7.07
2023-11-22T17:18:14.107Z,7.07
2023-11-22T17:20:43.053Z,7.27
2023-11-22T17:23:10.746Z,6.73
2023-11-22T17:25:39.541Z,7.13
2023-11-22T17:28:06.937Z,8.77
2023-11-22T17:30:35.440Z,6.40
2023-11-22T17:33:03.611Z,8.00
2023-11-22T17:35:31.394Z,5.63
2023-11-22T17:38:01.417Z,6.00
2023-11-22T17:40:29.978Z,6.40
2023-11-22T17:43:01.832Z,7.03
2023-11-22T17:45:29.534Z,7.50
2023-11-22T17:47:56.148Z,8.73
2023-11-22T17:50:23.729Z,8.00
2023-11-22T17:52:51.234Z,5.73
2023-11-22T17:55:18.790Z,7.43
2023-11-22T17:57:46.253Z,7.27
2023-11-22T18:00:17.394Z,7.57
2023-11-22T18:02:45.099Z,6.57
2023-11-22T18:05:12.689Z,6.53
2023-11-22T18:07:40.196Z,7.20
2023-11-22T18:10:07.808Z,7.77
2023-11-22T18:12:35.489Z,7.87
2023-11-22T18:15:03.206Z,8.40
2023-11-22T18:17:32.076Z,7.93
2023-11-22T18:19:59.867Z,10.10
2023-11-22T18:22:27.282Z,8.90
2023-11-22T18:24:54.744Z,6.77
2023-11-22T18:27:22.224Z,6.83
2023-11-22T18:29:49.708Z,7.57
2023-11-22T18:32:17.352Z,7.83
2023-11-22T18:34:46.123Z,8.53
2023-11-22T18:37:13.536Z,6.43
2023-11-22T18:39:40.984Z,8.23
2023-11-22T18:42:08.455Z,6.27
2023-11-22T18:44:39.629Z,6.67
2023-11-22T18:47:07.473Z,5.70
2023-11-22T18:49:34.887Z,6.37
2023-11-22T18:52:03.845Z,6.43
2023-11-22T18:54:31.661Z,6.57
2023-11-22T18:56:59.114Z,7.30
2023-11-22T18:59:26.715Z,6.97
2023-11-22T19:01:54.679Z,8.27
2023-11-22T19:04:22.147Z,7.93
2023-11-22T19:06:50.133Z,8.33
2023-11-22T19:09:19.578Z,8.63
2023-11-22T19:11:47.993Z,8.80
2023-11-22T19:14:15.690Z,6.23
2023-11-22T19:16:44.871Z,7.10
2023-11-22T19:19:12.781Z,7.63
2023-11-22T19:21:40.275Z,8.17
2023-11-22T19:24:07.913Z,6.67
2023-11-22T19:26:36.954Z,7.00
2023-11-22T19:29:04.566Z,7.60
2023-11-22T19:31:32.421Z,8.37
2023-11-22T19:33:59.886Z,9.97
2023-11-22T19:36:28.066Z,10.97
2023-11-22T19:38:55.724Z,10.30
2023-11-22T19:41:23.591Z,11.37
2023-11-22T19:43:52.414Z,11.67
2023-11-22T19:46:20.028Z,11.23
2023-11-22T19:48:47.727Z,12.00
2023-11-22T19:51:15.483Z,12.17
2023-11-22T19:53:43.448Z,12.33
2023-11-22T19:56:10.892Z,11.73
2023-11-22T19:58:38.575Z,11.93
2023-11-22T20:01:07.581Z,10.67
2023-11-22T20:03:35.212Z,10.57
2023-11-22T20:06:02.741Z,10.87
2023-11-22T20:08:31.361Z,9.57
2023-11-22T20:10:59.051Z,10.90
2023-11-22T20:13:26.514Z,9.13
2023-11-22T20:15:53.989Z,13.37
2023-11-22T20:18:22.861Z,9.43
2023-11-22T20:20:50.542Z,11.97
2023-11-22T20:23:20.095Z,9.47
2023-11-22T20:25:47.613Z,11.70
2023-11-22T20:28:15.110Z,10.27
2023-11-22T20:30:42.871Z,11.17
2023-11-22T20:33:10.457Z,11.57
2023-11-22T20:35:41.308Z,11.07
2023-11-22T20:38:09.500Z,12.73
2023-11-22T20:40:36.936Z,10.03
2023-11-22T20:43:04.597Z,11.37
2023-11-22T20:45:35.132Z,10.37
2023-11-22T20:48:02.597Z,9.00
2023-11-22T20:50:30.248Z,9.90
2023-11-22T20:52:59.526Z,10.07
2023-11-22T20:55:27.653Z,10.20
2023-11-22T20:57:55.102Z,12.67
2023-11-22T21:00:22.619Z,10.83
2023-11-22T21:02:50.140Z,10.93
2023-11-22T21:05:17.648Z,10.07
2023-11-22T21:07:45.080Z,8.87
2023-11-22T21:10:14.027Z,8.40
2023-11-22T21:12:41.532Z,9.83
2023-11-22T21:15:10.054Z,8.67
2023-11-22T21:17:42.159Z,8.20
2023-11-22T21:20:11.062Z,8.13
2023-11-22T21:22:39.062Z,7.87
2023-11-22T21:25:09.051Z,10.10
2023-11-22T21:27:37.904Z,7.70
2023-11-22T21:30:05.772Z,8.53
2023-11-22T21:32:33.453Z,9.27
2023-11-22T21:35:01.041Z,8.70
2023-11-22T21:37:28.453Z,9.33
2023-11-22T21:39:56.196Z,8.80
2023-11-22T21:42:23.609Z,7.47
2023-11-22T21:44:52.379Z,8.97
2023-11-22T21:47:19.994Z,8.70
2023-11-22T21:49:48.364Z,9.53
2023-11-22T21:52:15.859Z,9.97
2023-11-22T21:54:43.319Z,8.67
2023-11-22T21:57:10.757Z,8.33
2023-11-22T21:59:38.287Z,8.00
2023-11-22T22:02:07.411Z,6.90
2023-11-22T22:04:35.180Z,8.50
2023-11-22T22:07:02.629Z,7.90
2023-11-22T22:09:30.586Z,10.20
2023-11-22T22:11:58.324Z,8.20
2023-11-22T22:14:26.101Z,7.30
2023-11-22T22:16:53.537Z,7.20
2023-11-22T22:19:22.347Z,8.77
2023-11-22T22:21:49.832Z,6.57
2023-11-22T22:24:17.449Z,7.27
2023-11-22T22:26:45.001Z,8.40
2023-11-22T22:29:12.422Z,7.57
2023-11-22T22:31:40.158Z,7.03
2023-11-22T22:34:08.398Z,6.40
2023-11-22T22:36:37.243Z,9.03
2023-11-22T22:39:05.613Z,9.10
2023-11-22T22:41:33.202Z,6.33
2023-11-22T22:44:00.688Z,6.90
2023-11-22T22:46:28.762Z,7.40
2023-11-22T22:48:56.771Z,7.83
2023-11-22T22:51:24.606Z,7.47
2023-11-22T22:53:53.831Z,7.03
2023-11-22T22:56:21.295Z,6.53
2023-11-22T22:58:49.764Z,7.17
2023-11-22T23:01:17.471Z,9.00
2023-11-22T23:03:45.101Z,7.50
2023-11-22T23:06:21.365Z,7.57
2023-11-22T23:08:48.830Z,6.17
2023-11-22T23:11:17.616Z,7.27
2023-11-22T23:13:45.756Z,6.57
2023-11-22T23:16:13.371Z,6.30
2023-11-22T23:18:42.814Z,7.20
2023-11-22T23:21:10.901Z,6.30
2023-11-22T23:23:38.614Z,7.53
2023-11-22T23:26:06.135Z,6.97
2023-11-22T23:28:36.646Z,7.00
2023-11-22T23:31:05.920Z,6.07
2023-11-22T23:33:33.734Z,6.40
2023-11-22T23:36:03.891Z,7.70
2023-11-22T23:38:31.976Z,5.63
2023-11-22T23:40:59.417Z,7.53
2023-11-22T23:43:32.162Z,6.53
2023-11-22T23:46:00.987Z,7.73
2023-11-22T23:48:29.429Z,7.27
2023-11-22T23:50:57.015Z,6.70
2023-11-22T23:53:24.449Z,7.80
2023-11-22T23:55:51.865Z,6.83
2023-11-22T23:58:19.268Z,7.40
